createdAt,value
2017-06-26T00:00:55.212Z,27.67
2017-06-26T00:01:55.229Z,27.69
2017-06-26T00:02:54.959Z,27.69
2017-06-26T00:03:55.302Z,27.67
2017-06-26T00:04:55.008Z,27.78
2017-06-26T00:05:55.359Z,27.72
2017-06-26T00:06:54.757Z,27.74
2017-06-26T00:07:55.419Z,27.72
2017-06-26T00:08:55.439Z,27.69
2017-06-26T00:09:55.156Z,27.66
2017-06-26T00:10:55.489Z,27.7
2017-06-26T00:11:55.529Z,27.67
2017-06-26T00:12:55.258Z,27.59
2017-06-26T00:13:55.587Z,27.65
2017-06-26T00:14:55.922Z,27.65
2017-06-26T00:15:55.643Z,27.67
2017-06-26T00:16:55.363Z,27.67
2017-06-26T00:17:55.701Z,27.67
2017-06-26T00:18:55.428Z,27.72
2017-06-26T00:19:56.024Z,27.67
2017-06-26T00:20:55.486Z,27.65
2017-06-26T00:21:55.829Z,27.7
2017-06-26T00:22:55.851Z,27.72
2017-06-26T00:23:55.885Z,27.67
2017-06-26T00:24:56.173Z,27.66
2017-06-26T00:25:55.939Z,27.67
2017-06-26T00:26:55.663Z,27.67
2017-06-26T00:27:55.998Z,27.65
2017-06-26T00:28:55.719Z,27.7
2017-06-26T00:29:55.693Z,27.63
2017-06-26T00:30:56.106Z,27.69
2017-06-26T00:31:55.805Z,27.62
2017-06-26T00:32:56.151Z,27.62
2017-06-26T00:33:55.868Z,27.69
2017-06-26T00:34:56.520Z,27.7
2017-06-26T00:35:55.922Z,27.69
2017-06-26T00:36:55.962Z,27.69
2017-06-26T00:37:56.306Z,27.7
2017-06-26T00:38:55.708Z,27.77
2017-06-26T00:39:56.613Z,27.67
2017-06-26T00:40:56.082Z,27.65
2017-06-26T00:41:56.108Z,27.67
2017-06-26T00:42:55.822Z,27.7
2017-06-26T00:43:56.168Z,27.72
2017-06-26T00:44:56.759Z,27.69
2017-06-26T00:45:56.226Z,27.67
2017-06-26T00:46:56.557Z,27.62
2017-06-26T00:47:56.594Z,27.69
2017-06-26T00:48:56.635Z,27.72
2017-06-26T00:49:56.908Z,27.69
2017-06-26T00:50:56.686Z,27.67
2017-06-26T00:51:56.397Z,27.69
2017-06-26T00:52:56.732Z,27.66
2017-06-26T00:53:56.773Z,27.72
2017-06-26T00:54:57.100Z,27.66
2017-06-26T00:55:56.826Z,27.69
2017-06-26T00:56:56.863Z,27.66
2017-06-26T00:57:56.571Z,27.66
2017-06-26T00:58:56.917Z,27.66
2017-06-26T00:59:56.881Z,27.66
2017-06-26T01:00:56.675Z,27.69
2017-06-26T01:01:57.002Z,27.65
2017-06-26T01:02:57.039Z,27.66
2017-06-26T01:03:56.756Z,27.66
2017-06-26T01:04:57.089Z,27.72
2017-06-26T01:05:57.129Z,27.69
2017-06-26T01:06:56.542Z,27.62
2017-06-26T01:07:57.195Z,27.63
2017-06-26T01:08:57.215Z,27.7
2017-06-26T01:09:57.239Z,27.65
2017-06-26T01:10:56.957Z,27.69
2017-06-26T01:11:56.995Z,27.66
2017-06-26T01:12:57.024Z,27.66
2017-06-26T01:13:57.053Z,27.69
2017-06-26T01:14:57.653Z,27.65
2017-06-26T01:15:57.418Z,27.66
2017-06-26T01:16:57.456Z,27.69
2017-06-26T01:17:57.167Z,27.69
2017-06-26T01:18:57.516Z,27.69
2017-06-26T01:19:57.543Z,27.66
2017-06-26T01:20:57.575Z,27.69
2017-06-26T01:21:57.605Z,27.69
2017-06-26T01:22:57.325Z,27.65
2017-06-26T01:23:57.655Z,27.6
2017-06-26T01:24:57.696Z,27.7
2017-06-26T01:25:57.719Z,27.65
2017-06-26T01:26:57.743Z,27.65
2017-06-26T01:27:57.159Z,27.59
2017-06-26T01:28:57.809Z,27.63
2017-06-26T01:29:57.842Z,27.66
2017-06-26T01:30:57.577Z,27.63
2017-06-26T01:31:57.900Z,27.7
2017-06-26T01:32:57.614Z,27.6
2017-06-26T01:33:57.953Z,27.57
2017-06-26T01:34:57.362Z,27.59
2017-06-26T01:35:57.706Z,27.59
2017-06-26T01:36:58.040Z,27.65
2017-06-26T01:37:58.069Z,27.55
2017-06-26T01:38:57.806Z,27.59
2017-06-26T01:39:57.817Z,27.63
2017-06-26T01:40:57.555Z,27.6
2017-06-26T01:41:57.880Z,27.63
2017-06-26T01:42:57.909Z,27.65
2017-06-26T01:43:58.261Z,27.65
2017-06-26T01:44:57.975Z,27.59
2017-06-26T01:45:57.999Z,27.55
2017-06-26T01:46:57.713Z,27.65
2017-06-26T01:47:58.376Z,27.59
2017-06-26T01:48:58.397Z,27.65
2017-06-26T01:49:58.118Z,27.57
2017-06-26T01:50:58.458Z,27.6
2017-06-26T01:51:57.872Z,27.55
2017-06-26T01:52:58.521Z,27.57
2017-06-26T01:53:58.239Z,27.57
2017-06-26T01:54:58.262Z,27.57
2017-06-26T01:55:58.605Z,27.65
2017-06-26T01:56:58.636Z,27.55
2017-06-26T01:57:58.664Z,27.67
2017-06-26T01:58:58.702Z,27.55
2017-06-26T01:59:58.726Z,27.55
2017-06-26T02:00:58.750Z,27.6
2017-06-26T02:01:58.793Z,27.47
2017-06-26T02:02:58.500Z,27.54
2017-06-26T02:03:58.846Z,27.5
2017-06-26T02:04:58.873Z,27.57
2017-06-26T02:05:58.904Z,27.63
2017-06-26T02:06:58.938Z,27.5
2017-06-26T02:07:58.964Z,27.44
2017-06-26T02:08:58.681Z,27.5
2017-06-26T02:09:58.710Z,27.47
2017-06-26T02:10:59.048Z,27.5
2017-06-26T02:11:59.087Z,27.5
2017-06-26T02:12:59.104Z,27.49
2017-06-26T02:13:59.134Z,27.5
2017-06-26T02:14:59.167Z,27.47
2017-06-26T02:15:58.896Z,27.51
2017-06-26T02:16:59.228Z,27.46
2017-06-26T02:17:58.948Z,27.51
2017-06-26T02:18:59.279Z,27.47
2017-06-26T02:19:59.003Z,27.49
2017-06-26T02:20:59.036Z,27.57
2017-06-26T02:21:59.376Z,27.54
2017-06-26T02:22:59.098Z,27.49
2017-06-26T02:23:59.431Z,27.51
2017-06-26T02:24:59.150Z,27.51
2017-06-26T02:25:59.508Z,27.47
2017-06-26T02:26:59.543Z,27.47
2017-06-26T02:27:59.241Z,27.44
2017-06-26T02:28:59.266Z,27.63
2017-06-26T02:29:59.607Z,27.51
2017-06-26T02:30:59.639Z,27.6
2017-06-26T02:31:59.353Z,27.5
2017-06-26T02:32:59.393Z,27.5
2017-06-26T02:33:59.739Z,27.5
2017-06-26T02:34:59.751Z,27.49
2017-06-26T02:35:59.492Z,27.51
2017-06-26T02:36:59.819Z,27.5
2017-06-26T02:37:59.846Z,27.59
2017-06-26T02:38:59.873Z,27.59
2017-06-26T02:39:59.899Z,27.5
2017-06-26T02:40:59.628Z,27.57
2017-06-26T02:41:59.968Z,27.57
2017-06-26T02:43:00.002Z,27.54
2017-06-26T02:44:00.026Z,27.5
2017-06-26T02:44:59.743Z,27.46
2017-06-26T02:45:59.464Z,27.46
2017-06-26T02:47:00.113Z,27.54
2017-06-26T02:48:00.145Z,27.49
2017-06-26T02:48:59.863Z,27.49
2017-06-26T02:49:59.896Z,27.47
2017-06-26T02:50:59.920Z,27.49
2017-06-26T02:52:00.265Z,27.46
2017-06-26T02:53:00.295Z,27.47
2017-06-26T02:54:00.322Z,27.49
2017-06-26T02:55:00.344Z,27.51
2017-06-26T02:56:00.376Z,27.49
2017-06-26T02:57:00.417Z,27.51
2017-06-26T02:58:00.134Z,27.54
2017-06-26T02:59:00.471Z,27.43
2017-06-26T03:00:00.491Z,27.49
2017-06-26T03:01:00.525Z,27.41
2017-06-26T03:02:00.557Z,27.49
2017-06-26T03:03:00.594Z,27.44
2017-06-26T03:04:00.610Z,27.47
2017-06-26T03:05:00.328Z,27.43
2017-06-26T03:06:00.354Z,27.49
2017-06-26T03:07:00.701Z,27.5
2017-06-26T03:08:00.730Z,27.5
2017-06-26T03:09:00.766Z,27.47
2017-06-26T03:10:00.787Z,27.46
2017-06-26T03:11:00.508Z,27.49
2017-06-26T03:12:00.849Z,27.46
2017-06-26T03:13:00.877Z,27.49
2017-06-26T03:14:00.911Z,27.5
2017-06-26T03:15:00.619Z,27.49
2017-06-26T03:16:01.227Z,27.37
2017-06-26T03:17:00.686Z,27.55
2017-06-26T03:18:00.714Z,27.47
2017-06-26T03:19:01.056Z,27.44
2017-06-26T03:20:01.096Z,27.47
2017-06-26T03:21:01.365Z,27.44
2017-06-26T03:22:00.838Z,27.47
2017-06-26T03:23:01.178Z,27.54
2017-06-26T03:24:00.887Z,27.46
2017-06-26T03:25:01.228Z,27.41
2017-06-26T03:26:01.516Z,27.46
2017-06-26T03:27:01.294Z,27.44
2017-06-26T03:28:01.323Z,27.47
2017-06-26T03:29:01.039Z,27.47
2017-06-26T03:30:01.069Z,27.47
2017-06-26T03:31:01.652Z,27.49
2017-06-26T03:32:01.126Z,27.41
2017-06-26T03:33:01.471Z,27.46
2017-06-26T03:34:01.507Z,27.46
2017-06-26T03:35:01.220Z,27.49
2017-06-26T03:36:01.185Z,27.37
2017-06-26T03:37:01.274Z,27.41
2017-06-26T03:38:01.622Z,27.39
2017-06-26T03:39:01.650Z,27.34
2017-06-26T03:40:01.363Z,27.39
2017-06-26T03:41:01.697Z,27.31
2017-06-26T03:42:01.108Z,27.34
2017-06-26T03:43:01.451Z,27.32
2017-06-26T03:44:01.483Z,27.41
2017-06-26T03:45:01.824Z,27.32
2017-06-26T03:46:01.793Z,27.37
2017-06-26T03:47:01.569Z,27.39
2017-06-26T03:48:01.914Z,27.46
2017-06-26T03:49:01.955Z,27.4
2017-06-26T03:50:01.677Z,27.37
2017-06-26T03:51:02.273Z,27.37
2017-06-26T03:52:02.050Z,27.37
2017-06-26T03:53:02.066Z,27.39
2017-06-26T03:54:01.804Z,27.44
2017-06-26T03:55:02.123Z,27.37
2017-06-26T03:56:02.437Z,27.37
2017-06-26T03:57:01.870Z,27.44
2017-06-26T03:58:02.206Z,27.41
2017-06-26T03:59:02.235Z,27.44
2017-06-26T04:00:01.952Z,27.49
2017-06-26T04:01:02.598Z,27.36
2017-06-26T04:02:02.014Z,27.41
2017-06-26T04:03:02.039Z,27.41
2017-06-26T04:04:02.077Z,27.37
2017-06-26T04:05:02.097Z,27.47
2017-06-26T04:06:02.441Z,27.44
2017-06-26T04:07:02.153Z,27.34
2017-06-26T04:08:02.503Z,27.41
2017-06-26T04:09:02.540Z,27.44
2017-06-26T04:10:02.555Z,27.46
2017-06-26T04:11:02.277Z,27.37
2017-06-26T04:12:02.310Z,27.47
2017-06-26T04:13:02.642Z,27.32
2017-06-26T04:14:02.360Z,27.36
2017-06-26T04:15:02.712Z,27.36
2017-06-26T04:16:02.741Z,27.32
2017-06-26T04:17:02.454Z,27.32
2017-06-26T04:18:02.795Z,27.39
2017-06-26T04:19:02.824Z,27.37
2017-06-26T04:20:02.855Z,27.36
2017-06-26T04:21:02.569Z,27.32
2017-06-26T04:22:02.898Z,27.34
2017-06-26T04:23:02.626Z,27.32
2017-06-26T04:24:02.972Z,27.32
2017-06-26T04:25:03.002Z,27.36
2017-06-26T04:26:02.715Z,27.34
2017-06-26T04:27:03.311Z,27.39
2017-06-26T04:28:03.090Z,27.29
2017-06-26T04:29:03.108Z,27.32
2017-06-26T04:30:03.145Z,27.22
2017-06-26T04:31:03.181Z,27.32
2017-06-26T04:32:03.199Z,27.36
2017-06-26T04:33:02.923Z,27.27
2017-06-26T04:34:02.644Z,27.31
2017-06-26T04:35:03.295Z,27.36
2017-06-26T04:36:03.321Z,27.37
2017-06-26T04:37:03.606Z,27.31
2017-06-26T04:38:03.067Z,27.32
2017-06-26T04:39:03.411Z,27.29
2017-06-26T04:40:03.445Z,27.34
2017-06-26T04:41:03.166Z,27.36
2017-06-26T04:42:03.486Z,27.34
2017-06-26T04:43:03.524Z,27.36
2017-06-26T04:44:03.248Z,27.37
2017-06-26T04:45:03.580Z,27.39
2017-06-26T04:46:03.304Z,27.34
2017-06-26T04:47:03.941Z,27.36
2017-06-26T04:48:03.674Z,27.32
2017-06-26T04:49:03.700Z,27.28
2017-06-26T04:50:03.420Z,27.27
2017-06-26T04:51:03.141Z,27.24
2017-06-26T04:52:04.054Z,27.34
2017-06-26T04:53:03.818Z,27.27
2017-06-26T04:54:03.542Z,27.25
2017-06-26T04:55:03.877Z,27.24
2017-06-26T04:56:03.594Z,27.24
2017-06-26T04:57:04.186Z,27.25
2017-06-26T04:58:03.663Z,27.24
2017-06-26T04:59:04.008Z,27.22
2017-06-26T05:00:04.024Z,27.22
2017-06-26T05:01:04.054Z,27.25
2017-06-26T05:02:03.467Z,27.28
2017-06-26T05:03:04.120Z,27.31
2017-06-26T05:04:03.836Z,27.32
2017-06-26T05:05:04.168Z,27.25
2017-06-26T05:06:03.898Z,27.19
2017-06-26T05:07:03.927Z,27.27
2017-06-26T05:08:04.268Z,27.34
2017-06-26T05:09:03.977Z,27.21
2017-06-26T05:10:04.323Z,27.21
2017-06-26T05:11:04.352Z,27.28
2017-06-26T05:12:04.075Z,27.28
2017-06-26T05:13:04.105Z,27.24
2017-06-26T05:14:04.132Z,27.27
2017-06-26T05:15:04.156Z,27.29
2017-06-26T05:16:04.186Z,27.19
2017-06-26T05:17:04.215Z,27.31
2017-06-26T05:18:04.555Z,27.31
2017-06-26T05:19:04.275Z,27.27
2017-06-26T05:20:03.994Z,27.32
2017-06-26T05:21:04.655Z,27.28
2017-06-26T05:22:04.678Z,27.27
2017-06-26T05:23:04.703Z,27.29
2017-06-26T05:24:04.733Z,27.28
2017-06-26T05:25:04.758Z,27.34
2017-06-26T05:26:04.477Z,27.32
2017-06-26T05:27:04.823Z,27.29
2017-06-26T05:28:05.104Z,27.32
2017-06-26T05:29:04.880Z,27.25
2017-06-26T05:30:04.591Z,27.34
2017-06-26T05:31:04.627Z,27.27
2017-06-26T05:32:04.961Z,27.29
2017-06-26T05:33:04.673Z,27.28
2017-06-26T05:34:05.030Z,27.27
2017-06-26T05:35:05.057Z,27.29
2017-06-26T05:36:05.082Z,27.34
2017-06-26T05:37:05.111Z,27.36
2017-06-26T05:38:05.399Z,27.32
2017-06-26T05:39:05.177Z,27.34
2017-06-26T05:40:05.202Z,27.32
2017-06-26T05:41:04.935Z,27.34
2017-06-26T05:42:05.267Z,27.34
2017-06-26T05:43:05.552Z,27.34
2017-06-26T05:44:05.017Z,27.4
2017-06-26T05:45:05.345Z,27.43
2017-06-26T05:46:05.374Z,27.4
2017-06-26T05:47:05.407Z,27.36
2017-06-26T05:48:05.683Z,27.37
2017-06-26T05:49:05.158Z,27.37
2017-06-26T05:50:05.198Z,27.39
2017-06-26T05:51:05.520Z,27.4
2017-06-26T05:52:05.560Z,27.39
2017-06-26T05:53:05.532Z,27.29
2017-06-26T05:54:05.617Z,27.31
2017-06-26T05:55:05.649Z,27.34
2017-06-26T05:56:05.673Z,27.34
2017-06-26T05:57:05.722Z,27.37
2017-06-26T05:58:06.039Z,27.34
2017-06-26T05:59:05.453Z,27.37
2017-06-26T06:00:05.481Z,27.39
2017-06-26T06:01:05.195Z,27.37
2017-06-26T06:02:05.527Z,27.36
2017-06-26T06:03:05.866Z,27.39
2017-06-26T06:04:05.905Z,27.34
2017-06-26T06:05:05.625Z,27.44
2017-06-26T06:06:05.966Z,27.39
2017-06-26T06:07:05.698Z,27.4
2017-06-26T06:08:06.319Z,27.46
2017-06-26T06:09:05.741Z,27.44
2017-06-26T06:10:06.083Z,27.4
2017-06-26T06:11:05.810Z,27.4
2017-06-26T06:12:05.835Z,27.4
2017-06-26T06:13:06.417Z,27.43
2017-06-26T06:14:06.205Z,27.46
2017-06-26T06:15:05.921Z,27.37
2017-06-26T06:16:06.266Z,27.36
2017-06-26T06:17:05.983Z,27.46
2017-06-26T06:18:06.578Z,27.4
2017-06-26T06:19:06.341Z,27.49
2017-06-26T06:20:06.374Z,27.39
2017-06-26T06:21:06.098Z,27.46
2017-06-26T06:22:06.127Z,27.43
2017-06-26T06:23:06.476Z,27.37
2017-06-26T06:24:06.185Z,27.39
2017-06-26T06:25:06.221Z,27.41
2017-06-26T06:26:06.236Z,27.49
2017-06-26T06:27:06.276Z,27.36
2017-06-26T06:28:06.605Z,27.31
2017-06-26T06:29:06.344Z,27.46
2017-06-26T06:30:06.358Z,27.39
2017-06-26T06:31:06.707Z,27.39
2017-06-26T06:32:06.418Z,27.41
2017-06-26T06:33:06.756Z,27.37
2017-06-26T06:34:06.483Z,27.37
2017-06-26T06:35:06.822Z,27.34
2017-06-26T06:36:06.539Z,27.49
2017-06-26T06:37:06.888Z,27.39
2017-06-26T06:38:06.909Z,27.37
2017-06-26T06:39:06.626Z,27.5
2017-06-26T06:40:06.961Z,27.49
2017-06-26T06:41:06.994Z,27.47
2017-06-26T06:42:07.020Z,27.49
2017-06-26T06:43:06.741Z,27.43
2017-06-26T06:44:06.777Z,27.4
2017-06-26T06:45:06.803Z,27.44
2017-06-26T06:46:07.149Z,27.37
2017-06-26T06:47:07.175Z,27.36
2017-06-26T06:48:07.219Z,27.37
2017-06-26T06:49:07.237Z,27.37
2017-06-26T06:50:07.261Z,27.43
2017-06-26T06:51:07.294Z,27.44
2017-06-26T06:52:07.007Z,27.37
2017-06-26T06:53:07.361Z,27.46
2017-06-26T06:54:07.381Z,27.49
2017-06-26T06:55:07.425Z,27.49
2017-06-26T06:56:07.447Z,27.54
2017-06-26T06:57:07.467Z,27.47
2017-06-26T06:58:07.188Z,27.44
2017-06-26T06:59:07.805Z,27.46
2017-06-26T07:00:07.560Z,27.44
2017-06-26T07:01:06.962Z,27.46
2017-06-26T07:02:07.624Z,27.47
2017-06-26T07:03:07.343Z,27.5
2017-06-26T07:04:07.616Z,27.47
2017-06-26T07:05:07.391Z,27.5
2017-06-26T07:06:07.427Z,27.51
2017-06-26T07:07:07.772Z,27.55
2017-06-26T07:08:07.487Z,27.54
2017-06-26T07:09:08.120Z,27.5
2017-06-26T07:10:07.863Z,27.59
2017-06-26T07:11:07.576Z,27.47
2017-06-26T07:12:07.611Z,27.49
2017-06-26T07:13:07.946Z,27.54
2017-06-26T07:14:08.265Z,27.59
2017-06-26T07:15:08.003Z,27.59
2017-06-26T07:16:07.719Z,27.6
2017-06-26T07:17:07.749Z,27.66
2017-06-26T07:18:08.082Z,27.47
2017-06-26T07:19:08.118Z,27.49
2017-06-26T07:20:07.843Z,27.5
2017-06-26T07:21:07.875Z,27.54
2017-06-26T07:22:07.900Z,27.51
2017-06-26T07:23:07.933Z,27.57
2017-06-26T07:24:07.901Z,27.5
2017-06-26T07:25:08.310Z,27.5
2017-06-26T07:26:08.015Z,27.66
2017-06-26T07:27:08.357Z,27.47
2017-06-26T07:28:08.072Z,27.66
2017-06-26T07:29:08.402Z,27.59
2017-06-26T07:30:08.450Z,27.55
2017-06-26T07:31:08.480Z,27.57
2017-06-26T07:32:08.507Z,27.47
2017-06-26T07:33:08.525Z,27.62
2017-06-26T07:34:08.870Z,27.54
2017-06-26T07:35:08.603Z,27.62
2017-06-26T07:36:08.623Z,27.55
2017-06-26T07:37:08.656Z,27.55
2017-06-26T07:38:08.368Z,27.49
2017-06-26T07:39:08.654Z,27.62
2017-06-26T07:40:08.734Z,27.59
2017-06-26T07:41:08.779Z,27.5
2017-06-26T07:42:08.800Z,27.6
2017-06-26T07:43:08.824Z,27.59
2017-06-26T07:44:09.109Z,27.6
2017-06-26T07:45:08.584Z,27.55
2017-06-26T07:46:08.953Z,27.57
2017-06-26T07:47:08.965Z,27.6
2017-06-26T07:48:08.669Z,27.54
2017-06-26T07:49:09.310Z,27.66
2017-06-26T07:50:09.027Z,27.67
2017-06-26T07:51:08.751Z,27.69
2017-06-26T07:52:08.790Z,27.63
2017-06-26T07:53:08.820Z,27.63
2017-06-26T07:54:09.093Z,27.65
2017-06-26T07:55:09.190Z,27.62
2017-06-26T07:56:08.903Z,27.6
2017-06-26T07:57:09.253Z,27.7
2017-06-26T07:58:08.965Z,27.69
2017-06-26T07:59:09.557Z,27.67
2017-06-26T08:00:09.020Z,27.67
2017-06-26T08:01:09.375Z,27.7
2017-06-26T08:02:09.396Z,27.65
2017-06-26T08:03:09.106Z,27.63
2017-06-26T08:04:09.140Z,27.69
2017-06-26T08:05:09.162Z,27.65
2017-06-26T08:06:09.187Z,27.67
2017-06-26T08:07:09.541Z,27.69
2017-06-26T08:08:09.570Z,27.66
2017-06-26T08:09:09.280Z,27.62
2017-06-26T08:10:09.632Z,27.63
2017-06-26T08:11:09.667Z,27.63
2017-06-26T08:12:09.689Z,27.69
2017-06-26T08:13:09.725Z,27.72
2017-06-26T08:14:09.434Z,27.72
2017-06-26T08:15:09.776Z,27.65
2017-06-26T08:16:09.500Z,27.67
2017-06-26T08:17:09.836Z,27.65
2017-06-26T08:18:09.865Z,27.74
2017-06-26T08:19:09.893Z,27.7
2017-06-26T08:20:09.619Z,27.69
2017-06-26T08:21:09.956Z,27.66
2017-06-26T08:22:09.686Z,27.66
2017-06-26T08:23:09.706Z,27.72
2017-06-26T08:24:10.049Z,27.65
2017-06-26T08:25:10.067Z,27.69
2017-06-26T08:26:09.796Z,27.72
2017-06-26T08:27:10.143Z,27.69
2017-06-26T08:28:10.166Z,27.81
2017-06-26T08:29:09.882Z,27.74
2017-06-26T08:30:09.920Z,27.67
2017-06-26T08:31:09.948Z,27.78
2017-06-26T08:32:10.280Z,27.81
2017-06-26T08:33:10.313Z,27.75
2017-06-26T08:34:10.024Z,27.82
2017-06-26T08:35:09.749Z,27.78
2017-06-26T08:36:10.089Z,27.82
2017-06-26T08:37:10.113Z,27.75
2017-06-26T08:38:10.457Z,27.78
2017-06-26T08:39:10.178Z,27.84
2017-06-26T08:40:10.523Z,27.81
2017-06-26T08:41:10.553Z,27.84
2017-06-26T08:42:10.588Z,27.88
2017-06-26T08:43:10.609Z,27.77
2017-06-26T08:44:10.638Z,27.84
2017-06-26T08:45:10.353Z,27.87
2017-06-26T08:46:10.384Z,27.81
2017-06-26T08:47:10.422Z,27.85
2017-06-26T08:48:10.443Z,27.82
2017-06-26T08:49:10.790Z,27.88
2017-06-26T08:50:11.124Z,27.84
2017-06-26T08:51:10.853Z,27.85
2017-06-26T08:52:10.886Z,27.87
2017-06-26T08:53:10.590Z,27.84
2017-06-26T08:54:10.929Z,27.82
2017-06-26T08:55:11.224Z,27.85
2017-06-26T08:56:10.680Z,27.84
2017-06-26T08:57:11.029Z,27.81
2017-06-26T08:58:11.055Z,27.81
2017-06-26T08:59:10.771Z,27.87
2017-06-26T09:00:11.408Z,27.87
2017-06-26T09:01:11.144Z,27.96
2017-06-26T09:02:10.555Z,27.87
2017-06-26T09:03:11.202Z,27.77
2017-06-26T09:04:10.915Z,27.9
2017-06-26T09:05:11.200Z,27.9
2017-06-26T09:06:10.981Z,27.9
2017-06-26T09:07:10.693Z,27.93
2017-06-26T09:08:11.359Z,27.85
2017-06-26T09:09:11.388Z,27.87
2017-06-26T09:10:11.663Z,27.92
2017-06-26T09:11:11.441Z,27.93
2017-06-26T09:12:11.464Z,27.9
2017-06-26T09:13:11.178Z,27.87
2017-06-26T09:14:11.526Z,27.92
2017-06-26T09:15:11.807Z,27.85
2017-06-26T09:16:11.589Z,27.92
2017-06-26T09:17:11.622Z,27.93
2017-06-26T09:18:11.651Z,27.87
2017-06-26T09:19:11.671Z,27.93
2017-06-26T09:20:11.644Z,27.97
2017-06-26T09:21:11.738Z,27.92
2017-06-26T09:22:11.449Z,27.92
2017-06-26T09:23:11.491Z,27.94
2017-06-26T09:24:11.200Z,27.92
2017-06-26T09:25:12.160Z,27.97
2017-06-26T09:26:11.572Z,27.9
2017-06-26T09:27:11.914Z,28.02
2017-06-26T09:28:11.950Z,27.97
2017-06-26T09:29:12.004Z,27.93
2017-06-26T09:30:11.626Z,28.03
2017-06-26T09:31:12.037Z,27.99
2017-06-26T09:32:12.066Z,27.97
2017-06-26T09:33:12.098Z,28.02
2017-06-26T09:34:12.127Z,27.97
2017-06-26T09:35:12.098Z,27.97
2017-06-26T09:36:12.189Z,28.06
2017-06-26T09:37:12.212Z,27.97
2017-06-26T09:38:12.255Z,28.04
2017-06-26T09:39:11.654Z,28.04
2017-06-26T09:40:12.236Z,28.04
2017-06-26T09:41:12.029Z,28.06
2017-06-26T09:42:12.371Z,28.02
2017-06-26T09:43:12.087Z,28.06
2017-06-26T09:44:12.422Z,28.03
2017-06-26T09:45:12.399Z,28.06
2017-06-26T09:46:12.481Z,28.12
2017-06-26T09:47:12.207Z,28.09
2017-06-26T09:48:12.236Z,28.07
2017-06-26T09:49:12.268Z,28.11
2017-06-26T09:50:12.551Z,28.09
2017-06-26T09:51:12.322Z,28.15
2017-06-26T09:52:12.654Z,28.18
2017-06-26T09:53:12.071Z,28.22
2017-06-26T09:54:12.400Z,28.17
2017-06-26T09:55:12.439Z,28.22
2017-06-26T09:56:12.478Z,28.3
2017-06-26T09:57:12.814Z,28.22
2017-06-26T09:58:12.527Z,28.22
2017-06-26T09:59:12.860Z,28.22
2017-06-26T10:00:12.901Z,28.37
2017-06-26T10:01:12.941Z,28.27
2017-06-26T10:02:12.968Z,28.33
2017-06-26T10:03:12.990Z,28.34
2017-06-26T10:04:13.029Z,28.31
2017-06-26T10:05:13.053Z,28.31
2017-06-26T10:06:12.458Z,28.3
2017-06-26T10:07:12.802Z,28.39
2017-06-26T10:08:13.158Z,28.36
2017-06-26T10:09:12.855Z,28.39
2017-06-26T10:10:12.893Z,28.36
2017-06-26T10:11:12.606Z,28.36
2017-06-26T10:12:13.258Z,28.39
2017-06-26T10:13:13.290Z,28.34
2017-06-26T10:14:13.008Z,28.37
2017-06-26T10:15:13.043Z,28.37
2017-06-26T10:16:13.381Z,28.37
2017-06-26T10:17:13.418Z,28.37
2017-06-26T10:18:13.445Z,28.33
2017-06-26T10:19:13.160Z,28.36
2017-06-26T10:20:12.873Z,28.46
2017-06-26T10:21:13.468Z,28.43
2017-06-26T10:22:13.566Z,28.4
2017-06-26T10:23:13.596Z,28.4
2017-06-26T10:24:13.307Z,28.34
2017-06-26T10:25:13.333Z,28.49
2017-06-26T10:26:13.977Z,28.49
2017-06-26T10:27:13.714Z,28.44
2017-06-26T10:28:13.431Z,28.51
2017-06-26T10:29:13.768Z,28.52
2017-06-26T10:30:13.173Z,28.54
2017-06-26T10:31:13.774Z,28.44
2017-06-26T10:32:13.546Z,28.43
2017-06-26T10:33:13.575Z,28.46
2017-06-26T10:34:13.616Z,28.4
2017-06-26T10:35:13.950Z,28.39
2017-06-26T10:36:14.277Z,28.49
2017-06-26T10:37:14.011Z,28.48
2017-06-26T10:38:14.049Z,28.58
2017-06-26T10:39:14.080Z,28.51
2017-06-26T10:40:14.109Z,28.52
2017-06-26T10:41:14.062Z,28.55
2017-06-26T10:42:14.160Z,28.55
2017-06-26T10:43:13.571Z,28.58
2017-06-26T10:44:14.219Z,28.56
2017-06-26T10:45:14.257Z,28.54
2017-06-26T10:46:14.217Z,28.52
2017-06-26T10:47:14.315Z,28.52
2017-06-26T10:48:14.336Z,28.55
2017-06-26T10:49:14.060Z,28.61
2017-06-26T10:50:14.097Z,28.58
2017-06-26T10:51:14.687Z,28.58
2017-06-26T10:52:14.460Z,28.67
2017-06-26T10:53:13.876Z,28.66
2017-06-26T10:54:14.528Z,28.62
2017-06-26T10:55:14.554Z,28.62
2017-06-26T10:56:14.575Z,28.7
2017-06-26T10:57:14.614Z,28.62
2017-06-26T10:58:14.643Z,28.71
2017-06-26T10:59:14.679Z,28.64
2017-06-26T11:00:14.393Z,28.62
2017-06-26T11:01:15.041Z,28.68
2017-06-26T11:02:14.770Z,28.67
2017-06-26T11:03:14.494Z,28.67
2017-06-26T11:04:14.825Z,28.67
2017-06-26T11:05:14.857Z,28.67
2017-06-26T11:06:15.133Z,28.66
2017-06-26T11:07:14.919Z,28.67
2017-06-26T11:08:14.640Z,28.71
2017-06-26T11:09:14.968Z,28.71
2017-06-26T11:10:14.997Z,28.77
2017-06-26T11:11:14.981Z,28.66
2017-06-26T11:12:15.068Z,28.67
2017-06-26T11:13:15.091Z,28.71
2017-06-26T11:14:15.124Z,28.71
2017-06-26T11:15:14.532Z,28.68
2017-06-26T11:16:15.429Z,28.73
2017-06-26T11:17:14.907Z,28.76
2017-06-26T11:18:15.244Z,28.71
2017-06-26T11:19:14.981Z,28.76
2017-06-26T11:20:15.301Z,28.74
2017-06-26T11:21:14.971Z,28.76
2017-06-26T11:22:15.055Z,28.76
2017-06-26T11:23:15.400Z,28.83
2017-06-26T11:24:15.424Z,28.92
2017-06-26T11:25:15.462Z,28.83
2017-06-26T11:26:15.433Z,28.89
2017-06-26T11:27:15.209Z,28.86
2017-06-26T11:28:15.544Z,28.92
2017-06-26T11:29:15.589Z,28.9
2017-06-26T11:30:15.616Z,28.88
2017-06-26T11:31:15.942Z,28.88
2017-06-26T11:32:15.664Z,28.86
2017-06-26T11:33:15.696Z,28.9
2017-06-26T11:34:15.732Z,28.96
2017-06-26T11:35:15.769Z,28.98
2017-06-26T11:36:16.045Z,29.02
2017-06-26T11:37:15.819Z,29.05
2017-06-26T11:38:15.540Z,29.12
2017-06-26T11:39:15.883Z,29.12
2017-06-26T11:40:15.915Z,29.26
2017-06-26T11:41:15.886Z,29.28
2017-06-26T11:42:15.971Z,29.49
2017-06-26T11:43:16.003Z,29.61
2017-06-26T11:44:15.725Z,29.68
2017-06-26T11:45:15.754Z,29.89
2017-06-26T11:46:16.397Z,29.95
2017-06-26T11:47:15.819Z,30.11
2017-06-26T11:48:16.173Z,30.35
2017-06-26T11:49:15.883Z,30.43
2017-06-26T11:50:16.231Z,30.57
2017-06-26T11:51:16.250Z,30.65
2017-06-26T11:52:15.979Z,30.83
2017-06-26T11:53:16.322Z,30.92
2017-06-26T11:54:16.348Z,31.09
2017-06-26T11:55:16.078Z,31.25
2017-06-26T11:56:16.726Z,31.31
2017-06-26T11:57:16.453Z,31.43
2017-06-26T11:58:16.485Z,31.66
2017-06-26T11:59:16.209Z,31.69
2017-06-26T12:00:15.959Z,31.81
2017-06-26T12:01:16.831Z,31.95
2017-06-26T12:02:16.307Z,32.1
2017-06-26T12:03:16.657Z,32.14
2017-06-26T12:04:16.377Z,32.22
2017-06-26T12:05:16.721Z,32.33
2017-06-26T12:06:17.004Z,32.5
2017-06-26T12:07:16.797Z,32.51
2017-06-26T12:08:16.827Z,32.66
2017-06-26T12:09:16.873Z,32.81
2017-06-26T12:10:16.891Z,32.78
2017-06-26T12:11:17.181Z,32.85
2017-06-26T12:12:16.960Z,33.04
2017-06-26T12:13:16.990Z,33.15
2017-06-26T12:14:17.018Z,33.14
2017-06-26T12:15:17.059Z,33.26
2017-06-26T12:16:17.398Z,33.31
2017-06-26T12:17:16.810Z,33.38
2017-06-26T12:18:17.165Z,33.49
2017-06-26T12:19:17.197Z,33.57
2017-06-26T12:20:16.951Z,33.66
2017-06-26T12:21:17.563Z,33.71
2017-06-26T12:22:17.300Z,33.76
2017-06-26T12:23:17.341Z,33.87
2017-06-26T12:24:17.373Z,33.88
2017-06-26T12:25:17.104Z,33.95
2017-06-26T12:26:16.823Z,34.12
2017-06-26T12:27:17.172Z,34.12
2017-06-26T12:28:17.194Z,34.19
2017-06-26T12:29:17.237Z,34.25
2017-06-26T12:30:17.583Z,34.27
2017-06-26T12:31:17.318Z,34.32
2017-06-26T12:32:17.340Z,34.42
2017-06-26T12:33:17.688Z,34.35
2017-06-26T12:34:17.419Z,34.44
2017-06-26T12:35:17.759Z,34.43
2017-06-26T12:36:17.796Z,34.46
2017-06-26T12:37:17.521Z,34.47
2017-06-26T12:38:17.869Z,34.59
2017-06-26T12:39:17.901Z,34.66
2017-06-26T12:40:17.939Z,34.66
2017-06-26T12:41:17.987Z,34.66
2017-06-26T12:42:18.014Z,34.77
2017-06-26T12:43:18.054Z,34.77
2017-06-26T12:44:17.778Z,34.78
2017-06-26T12:45:17.811Z,34.78
2017-06-26T12:46:18.163Z,34.82
2017-06-26T12:47:18.188Z,34.88
2017-06-26T12:48:18.233Z,34.96
2017-06-26T12:49:18.285Z,35.02
2017-06-26T12:50:18.294Z,35
2017-06-26T12:51:17.711Z,34.96
2017-06-26T12:52:18.676Z,34.97
2017-06-26T12:53:18.405Z,35.03
2017-06-26T12:54:18.442Z,35
2017-06-26T12:55:18.175Z,35.09
2017-06-26T12:56:18.517Z,35.03